createdAt,value
2018-10-06T00:00:19.072Z,10.60
2018-10-06T00:02:47.507Z,10.60
2018-10-06T00:05:15.853Z,10.50
2018-10-06T00:07:44.220Z,10.50
2018-10-06T00:10:12.548Z,10.40
2018-10-06T00:12:40.912Z,10.40
2018-10-06T00:15:09.329Z,10.30
2018-10-06T00:17:37.679Z,10.30
2018-10-06T00:20:06.622Z,10.20
2018-10-06T00:22:34.988Z,10.20
2018-10-06T00:25:03.357Z,10.20
2018-10-06T00:27:31.712Z,10.20
2018-10-06T00:30:00.059Z,10.10
2018-10-06T00:32:28.552Z,10.10
2018-10-06T00:34:57.183Z,10.10
2018-10-06T00:37:25.601Z,10.10
2018-10-06T00:39:53.969Z,10.00
2018-10-06T00:42:22.324Z,10.00
2018-10-06T00:44:50.639Z,10.00
2018-10-06T00:47:19.132Z,9.90
2018-10-06T00:49:47.332Z,9.80
2018-10-06T00:52:15.683Z,9.80
2018-10-06T00:54:44.013Z,9.80
2018-10-06T00:57:12.369Z,9.80
2018-10-06T00:59:40.700Z,9.70
2018-10-06T01:02:09.080Z,9.70
2018-10-06T01:04:37.404Z,9.70
2018-10-06T01:07:05.758Z,9.70
2018-10-06T01:09:34.133Z,9.70
2018-10-06T01:12:02.497Z,9.80
2018-10-06T01:14:30.833Z,9.80
2018-10-06T01:16:59.184Z,9.80
2018-10-06T01:19:27.816Z,9.90
2018-10-06T01:21:56.209Z,9.90
2018-10-06T01:24:24.523Z,9.90
2018-10-06T01:26:52.888Z,9.90
2018-10-06T01:29:21.227Z,9.90
2018-10-06T01:31:49.593Z,9.90
2018-10-06T01:34:17.952Z,9.90
2018-10-06T01:36:46.320Z,9.80
2018-10-06T01:39:14.672Z,9.80
2018-10-06T01:41:42.986Z,9.80
2018-10-06T01:44:11.337Z,9.80
2018-10-06T01:46:39.653Z,9.80
2018-10-06T01:49:08.024Z,9.80
2018-10-06T01:51:36.339Z,9.80
2018-10-06T01:54:04.698Z,9.80
2018-10-06T01:56:33.008Z,9.80
2018-10-06T01:59:01.370Z,9.80
2018-10-06T02:01:29.718Z,9.80
2018-10-06T02:03:58.087Z,9.80
2018-10-06T02:06:26.407Z,9.80
2018-10-06T02:08:54.807Z,9.80
2018-10-06T02:11:23.124Z,9.80
2018-10-06T02:13:51.484Z,9.80
2018-10-06T02:16:19.811Z,9.80
2018-10-06T02:18:48.162Z,9.80
2018-10-06T02:21:16.480Z,9.80
2018-10-06T02:23:44.827Z,9.90
2018-10-06T02:26:13.148Z,9.90
2018-10-06T02:28:41.520Z,9.80
2018-10-06T02:31:09.833Z,9.90
2018-10-06T02:33:38.192Z,9.90
2018-10-06T02:36:06.528Z,9.90
2018-10-06T02:38:34.895Z,9.90
2018-10-06T02:41:03.243Z,10.00
2018-10-06T02:43:31.602Z,10.00
2018-10-06T02:45:59.932Z,10.00
2018-10-06T02:48:28.349Z,10.00
2018-10-06T02:50:56.717Z,10.00
2018-10-06T02:53:25.079Z,10.00
2018-10-06T02:55:53.404Z,10.00
2018-10-06T02:58:21.759Z,10.10
2018-10-06T03:00:50.094Z,10.10
2018-10-06T03:03:18.463Z,10.10
2018-10-06T03:05:46.795Z,10.10
2018-10-06T03:08:15.240Z,10.20
2018-10-06T03:10:43.602Z,10.20
2018-10-06T03:13:11.955Z,10.30
2018-10-06T03:15:40.300Z,10.40
2018-10-06T03:18:08.675Z,10.40
2018-10-06T03:20:36.989Z,10.50
2018-10-06T03:23:05.348Z,10.50
2018-10-06T03:25:33.686Z,10.50
2018-10-06T03:28:02.007Z,10.60
2018-10-06T03:30:30.368Z,10.60
2018-10-06T03:32:58.704Z,10.60
2018-10-06T03:35:27.052Z,10.70
2018-10-06T03:37:55.363Z,10.80
2018-10-06T03:40:23.758Z,10.80
2018-10-06T03:42:52.084Z,10.80
2018-10-06T03:45:20.450Z,10.80
2018-10-06T03:47:48.772Z,10.80
2018-10-06T03:50:17.129Z,10.80
2018-10-06T03:52:45.457Z,10.70
2018-10-06T03:55:13.824Z,10.70
2018-10-06T03:57:42.197Z,10.70
2018-10-06T04:00:10.572Z,10.70
2018-10-06T04:02:38.888Z,10.70
2018-10-06T04:05:07.244Z,10.60
2018-10-06T04:07:35.568Z,10.60
2018-10-06T04:10:03.935Z,10.50
2018-10-06T04:12:32.254Z,10.50
2018-10-06T04:15:00.660Z,10.40
2018-10-06T04:17:28.976Z,10.40
2018-10-06T04:19:57.344Z,10.30
2018-10-06T04:22:25.672Z,10.20
2018-10-06T04:24:54.043Z,10.20
2018-10-06T04:27:22.351Z,10.10
2018-10-06T04:29:50.732Z,10.10
2018-10-06T04:32:19.048Z,10.00
2018-10-06T04:34:47.409Z,10.00
2018-10-06T04:37:15.735Z,9.90
2018-10-06T04:39:44.108Z,9.80
2018-10-06T04:42:12.429Z,9.80
2018-10-06T04:44:40.799Z,9.80
2018-10-06T04:47:09.111Z,9.70
2018-10-06T04:49:37.464Z,9.70
2018-10-06T04:52:06.040Z,9.70
2018-10-06T04:54:34.396Z,9.70
2018-10-06T04:57:02.705Z,9.70
2018-10-06T04:59:31.065Z,9.70
2018-10-06T05:01:59.394Z,9.60
2018-10-06T05:04:27.748Z,9.60
2018-10-06T05:06:56.085Z,9.50
2018-10-06T05:09:24.504Z,9.50
2018-10-06T05:11:52.828Z,9.40
2018-10-06T05:14:21.232Z,9.40
2018-10-06T05:16:49.875Z,9.40
2018-10-06T05:19:18.387Z,9.30
2018-10-06T05:21:46.775Z,9.30
2018-10-06T05:24:15.383Z,9.30
2018-10-06T05:26:43.845Z,9.20
2018-10-06T05:29:12.151Z,9.20
2018-10-06T05:31:44.330Z,9.20
2018-10-06T05:34:12.726Z,9.10
2018-10-06T05:36:41.195Z,9.10
2018-10-06T05:39:10.683Z,9.10
2018-10-06T05:41:39.053Z,9.10
2018-10-06T05:44:07.401Z,9.10
2018-10-06T05:46:35.803Z,9.10
2018-10-06T05:49:04.188Z,9.10
2018-10-06T05:51:32.577Z,9.10
2018-10-06T05:54:00.906Z,9.10
2018-10-06T05:56:29.298Z,9.10
2018-10-06T05:58:57.723Z,9.10
2018-10-06T06:01:26.060Z,9.10
2018-10-06T06:03:54.460Z,9.10
2018-10-06T06:06:22.851Z,9.10
2018-10-06T06:08:51.192Z,9.10
2018-10-06T06:11:19.636Z,9.10
2018-10-06T06:13:48.073Z,9.20
2018-10-06T06:16:16.468Z,9.30
2018-10-06T06:18:44.803Z,9.40
2018-10-06T06:21:13.220Z,9.40
2018-10-06T06:23:41.565Z,9.50
2018-10-06T06:26:09.934Z,9.60
2018-10-06T06:28:38.268Z,9.60
2018-10-06T06:31:06.693Z,9.70
2018-10-06T06:33:34.997Z,9.70
2018-10-06T06:36:03.369Z,9.80
2018-10-06T06:38:31.680Z,9.80
2018-10-06T06:41:00.041Z,9.90
2018-10-06T06:43:28.408Z,10.00
2018-10-06T06:45:56.754Z,10.10
2018-10-06T06:48:25.153Z,10.20
2018-10-06T06:50:53.567Z,10.20
2018-10-06T06:53:21.931Z,10.30
2018-10-06T06:55:50.388Z,10.40
2018-10-06T06:58:19.227Z,10.40
2018-10-06T07:00:47.971Z,10.50
2018-10-06T07:03:16.463Z,10.50
2018-10-06T07:05:44.947Z,10.60
2018-10-06T07:08:13.361Z,10.70
2018-10-06T07:10:41.796Z,10.70
2018-10-06T07:13:10.193Z,10.80
2018-10-06T07:15:38.661Z,10.90
2018-10-06T07:18:07.288Z,11.10
2018-10-06T07:20:35.833Z,11.20
2018-10-06T07:23:04.192Z,11.30
2018-10-06T07:25:32.809Z,11.30
2018-10-06T07:28:01.157Z,11.50
2018-10-06T07:30:29.496Z,11.60
2018-10-06T07:32:57.912Z,11.70
2018-10-06T07:35:26.362Z,11.80
2018-10-06T07:37:55.060Z,11.90
2018-10-06T07:40:23.472Z,12.00
2018-10-06T07:42:51.874Z,12.10
2018-10-06T07:45:20.260Z,12.20
2018-10-06T07:47:48.661Z,12.30
2018-10-06T07:50:17.003Z,12.40
2018-10-06T07:52:45.517Z,12.60
2018-10-06T07:55:13.901Z,12.70
2018-10-06T07:57:42.256Z,12.90
2018-10-06T08:00:10.589Z,13.10
2018-10-06T08:02:38.970Z,13.30
2018-10-06T08:05:07.308Z,13.50
2018-10-06T08:07:35.684Z,13.60
2018-10-06T08:10:04.050Z,13.90
2018-10-06T08:12:32.435Z,14.00
2018-10-06T08:15:00.869Z,14.20
2018-10-06T08:17:29.204Z,14.20
2018-10-06T08:19:57.550Z,14.40
2018-10-06T08:22:25.931Z,14.50
2018-10-06T08:24:54.252Z,14.60
2018-10-06T08:27:22.627Z,14.70
2018-10-06T08:29:50.976Z,14.80
2018-10-06T08:32:19.368Z,14.90
2018-10-06T08:34:47.698Z,15.00
2018-10-06T08:37:16.128Z,15.20
2018-10-06T08:39:44.461Z,15.20
2018-10-06T08:42:12.840Z,15.40
2018-10-06T08:44:41.164Z,15.50
2018-10-06T08:47:09.541Z,15.60
2018-10-06T08:49:37.870Z,15.70
2018-10-06T08:52:06.545Z,15.90
2018-10-06T08:54:34.860Z,16.00
2018-10-06T08:57:03.240Z,16.20
2018-10-06T08:59:31.608Z,16.30
2018-10-06T09:01:59.948Z,16.60
2018-10-06T09:04:28.381Z,16.90
2018-10-06T09:06:56.710Z,17.20
2018-10-06T09:09:25.088Z,17.40
2018-10-06T09:11:53.412Z,17.50
2018-10-06T09:14:21.847Z,17.60
2018-10-06T09:16:50.181Z,17.70
2018-10-06T09:19:18.557Z,17.70
2018-10-06T09:21:46.904Z,17.80
2018-10-06T09:24:15.311Z,17.90
2018-10-06T09:26:43.664Z,17.90
2018-10-06T09:29:12.129Z,17.90
2018-10-06T09:31:40.477Z,18.10
2018-10-06T09:34:08.945Z,18.20
2018-10-06T09:36:37.285Z,18.40
2018-10-06T09:39:07.056Z,18.40
2018-10-06T09:41:35.384Z,18.50
2018-10-06T09:44:03.793Z,18.50
2018-10-06T09:46:32.232Z,18.40
2018-10-06T09:49:00.738Z,18.50
2018-10-06T09:51:29.092Z,18.50
2018-10-06T09:53:57.474Z,18.50
2018-10-06T09:56:25.845Z,18.40
2018-10-06T09:58:54.219Z,18.50
2018-10-06T10:01:27.809Z,18.50
2018-10-06T10:04:01.321Z,18.50
2018-10-06T10:06:29.651Z,18.50
2018-10-06T10:08:58.031Z,18.50
2018-10-06T10:11:26.360Z,18.60
2018-10-06T10:13:54.741Z,18.70
2018-10-06T10:16:23.077Z,18.70
2018-10-06T10:18:51.476Z,18.80
2018-10-06T10:21:19.808Z,18.90
2018-10-06T10:23:48.214Z,19.00
2018-10-06T10:26:16.528Z,19.20
2018-10-06T10:28:44.945Z,19.30
2018-10-06T10:31:13.275Z,19.50
2018-10-06T10:33:41.644Z,19.50
2018-10-06T10:36:10.009Z,19.60
2018-10-06T10:38:39.293Z,19.60
2018-10-06T10:41:07.809Z,19.60
2018-10-06T10:43:36.195Z,19.70
2018-10-06T10:46:04.530Z,19.70
2018-10-06T10:48:32.936Z,19.70
2018-10-06T10:51:01.260Z,19.70
2018-10-06T10:53:29.650Z,19.80
2018-10-06T10:55:57.976Z,19.90
2018-10-06T10:58:26.368Z,20.20
2018-10-06T11:00:54.712Z,20.30
2018-10-06T11:03:23.091Z,20.40
2018-10-06T11:05:51.428Z,20.50
2018-10-06T11:08:21.893Z,20.60
2018-10-06T11:10:50.222Z,20.70
2018-10-06T11:13:18.609Z,20.70
2018-10-06T11:15:47.092Z,20.70
2018-10-06T11:18:15.464Z,20.80
2018-10-06T11:20:43.787Z,20.90
2018-10-06T11:23:12.211Z,21.00
2018-10-06T11:25:40.544Z,21.00
2018-10-06T11:28:08.940Z,21.00
2018-10-06T11:30:37.256Z,21.00
2018-10-06T11:33:05.660Z,21.10
2018-10-06T11:35:34.018Z,21.10
2018-10-06T11:38:02.518Z,21.10
2018-10-06T11:40:30.815Z,21.20
2018-10-06T11:42:59.216Z,21.20
2018-10-06T11:45:27.540Z,21.20
2018-10-06T11:47:55.925Z,21.10
2018-10-06T11:50:24.275Z,21.10
2018-10-06T11:52:52.646Z,21.00
2018-10-06T11:55:20.980Z,21.00
2018-10-06T11:57:49.402Z,21.00
2018-10-06T12:00:17.887Z,21.00
2018-10-06T12:02:46.175Z,21.00
2018-10-06T12:05:14.504Z,21.00
2018-10-06T12:07:42.840Z,21.00
2018-10-06T12:10:11.237Z,21.00
2018-10-06T12:12:39.600Z,21.10
2018-10-06T12:15:08.022Z,21.10
2018-10-06T12:17:36.389Z,21.10
2018-10-06T12:20:04.800Z,21.20
2018-10-06T12:22:33.196Z,21.20
2018-10-06T12:25:01.617Z,21.20
2018-10-06T12:27:30.065Z,21.30
2018-10-06T12:29:58.406Z,21.30
2018-10-06T12:32:26.794Z,21.40
2018-10-06T12:34:55.280Z,21.40
2018-10-06T12:37:23.625Z,21.50
2018-10-06T12:39:51.976Z,21.60
2018-10-06T12:42:20.537Z,21.50
2018-10-06T12:44:48.781Z,21.60
2018-10-06T12:47:17.205Z,21.60
2018-10-06T12:49:45.585Z,21.70
2018-10-06T12:52:13.976Z,21.80
2018-10-06T12:54:42.428Z,21.80
2018-10-06T12:57:10.841Z,21.80
2018-10-06T12:59:39.196Z,21.80
2018-10-06T13:02:07.592Z,21.90
2018-10-06T13:04:35.935Z,21.90
2018-10-06T13:07:04.349Z,21.90
2018-10-06T13:09:32.692Z,22.00
2018-10-06T13:12:07.844Z,22.00
2018-10-06T13:14:36.176Z,22.00
2018-10-06T13:17:04.573Z,22.10
2018-10-06T13:19:32.905Z,22.10
2018-10-06T13:22:01.299Z,22.20
2018-10-06T13:24:29.632Z,22.30
2018-10-06T13:26:58.007Z,22.30
2018-10-06T13:29:26.395Z,22.20
2018-10-06T13:31:54.824Z,22.30
2018-10-06T13:34:23.128Z,22.30
2018-10-06T13:36:51.540Z,22.30
2018-10-06T13:39:19.884Z,22.30
2018-10-06T13:41:48.265Z,22.40
2018-10-06T13:44:16.603Z,22.40
2018-10-06T13:46:45.093Z,22.40
2018-10-06T13:49:13.379Z,22.40
2018-10-06T13:51:41.759Z,22.40
2018-10-06T13:54:10.130Z,22.40
2018-10-06T13:56:38.566Z,22.40
2018-10-06T13:59:06.904Z,22.50
2018-10-06T14:01:35.311Z,22.50
2018-10-06T14:04:03.637Z,22.50
2018-10-06T14:06:32.096Z,22.40
2018-10-06T14:09:00.428Z,22.40
2018-10-06T14:11:28.769Z,22.30
2018-10-06T14:13:57.129Z,22.30
2018-10-06T14:16:25.452Z,22.30
2018-10-06T14:18:53.823Z,22.20
2018-10-06T14:21:22.152Z,22.20
2018-10-06T14:23:50.543Z,22.10
2018-10-06T14:26:19.063Z,22.10
2018-10-06T14:28:47.392Z,22.00
2018-10-06T14:31:15.731Z,22.00
2018-10-06T14:33:44.108Z,22.00
2018-10-06T14:36:12.529Z,21.90
2018-10-06T14:38:40.924Z,21.90
2018-10-06T14:41:09.292Z,21.90
2018-10-06T14:43:37.673Z,21.90
2018-10-06T14:46:06.369Z,21.80
2018-10-06T14:48:34.748Z,21.80
2018-10-06T14:51:03.192Z,21.70
2018-10-06T14:53:32.264Z,21.70
2018-10-06T14:56:00.598Z,21.70
2018-10-06T14:58:28.993Z,21.60
2018-10-06T15:00:57.347Z,21.60
2018-10-06T15:03:25.736Z,21.60
2018-10-06T15:05:54.097Z,21.50
2018-10-06T15:08:22.485Z,21.50
2018-10-06T15:10:50.822Z,21.50
2018-10-06T15:13:19.236Z,21.50
2018-10-06T15:15:47.612Z,21.40
2018-10-06T15:18:15.991Z,21.40
2018-10-06T15:20:44.345Z,21.30
2018-10-06T15:23:12.731Z,21.30
2018-10-06T15:25:41.101Z,21.30
2018-10-06T15:28:09.497Z,21.20
2018-10-06T15:30:37.864Z,21.20
2018-10-06T15:33:06.572Z,21.10
2018-10-06T15:35:35.652Z,21.10
2018-10-06T15:38:04.200Z,21.00
2018-10-06T15:40:32.529Z,21.00
2018-10-06T15:43:00.954Z,20.90
2018-10-06T15:45:29.321Z,20.90
2018-10-06T15:47:57.710Z,20.80
2018-10-06T15:50:26.077Z,20.80
2018-10-06T15:52:54.688Z,20.80
2018-10-06T15:55:23.464Z,20.70
2018-10-06T15:57:51.843Z,20.70
2018-10-06T16:00:20.175Z,20.60
2018-10-06T16:02:48.648Z,20.50
2018-10-06T16:05:16.952Z,20.50
2018-10-06T16:07:45.312Z,20.40
2018-10-06T16:10:13.676Z,20.40
2018-10-06T16:12:42.000Z,20.40
2018-10-06T16:15:10.363Z,20.30
2018-10-06T16:17:38.688Z,20.30
2018-10-06T16:20:07.103Z,20.20
2018-10-06T16:22:35.428Z,20.10
2018-10-06T16:25:03.828Z,20.10
2018-10-06T16:27:32.229Z,20.00
2018-10-06T16:30:00.560Z,19.90
2018-10-06T16:32:28.898Z,19.80
2018-10-06T16:34:57.269Z,19.70
2018-10-06T16:37:25.599Z,19.70
2018-10-06T16:39:53.949Z,19.60
2018-10-06T16:42:22.264Z,19.50
2018-10-06T16:44:50.626Z,19.50
2018-10-06T16:47:18.984Z,19.40
2018-10-06T16:49:47.332Z,19.30
2018-10-06T16:52:15.670Z,19.20
2018-10-06T16:54:44.040Z,19.10
2018-10-06T16:57:12.372Z,19.00
2018-10-06T16:59:40.748Z,18.90
2018-10-06T17:02:09.149Z,18.80
2018-10-06T17:04:37.464Z,18.80
2018-10-06T17:07:05.801Z,18.70
2018-10-06T17:09:34.157Z,18.50
2018-10-06T17:12:02.492Z,18.40
2018-10-06T17:14:30.857Z,18.30
2018-10-06T17:16:59.175Z,18.30
2018-10-06T17:19:27.528Z,18.20
2018-10-06T17:21:55.852Z,18.20
2018-10-06T17:24:24.289Z,18.10
2018-10-06T17:26:52.556Z,18.10
2018-10-06T17:29:20.931Z,18.00
2018-10-06T17:31:49.248Z,18.00
2018-10-06T17:34:17.626Z,17.90
2018-10-06T17:36:46.005Z,17.90
2018-10-06T17:39:14.380Z,17.80
2018-10-06T17:41:42.721Z,17.70
2018-10-06T17:44:11.177Z,17.70
2018-10-06T17:46:39.477Z,17.60
2018-10-06T17:49:07.869Z,17.50
2018-10-06T17:51:36.208Z,17.50
2018-10-06T17:54:04.556Z,17.40
2018-10-06T17:56:32.940Z,17.40
2018-10-06T17:59:01.362Z,17.30
2018-10-06T18:01:29.768Z,17.20
2018-10-06T18:03:58.124Z,17.20
2018-10-06T18:06:26.524Z,17.10
2018-10-06T18:08:54.853Z,17.00
2018-10-06T18:11:23.276Z,17.00
2018-10-06T18:13:51.669Z,16.90
2018-10-06T18:16:20.030Z,16.90
2018-10-06T18:18:48.365Z,16.80
2018-10-06T18:21:16.845Z,16.80
2018-10-06T18:23:45.081Z,16.70
2018-10-06T18:26:13.497Z,16.70
2018-10-06T18:28:41.797Z,16.60
2018-10-06T18:31:10.244Z,16.50
2018-10-06T18:33:38.599Z,16.40
2018-10-06T18:36:07.139Z,16.40
2018-10-06T18:38:35.437Z,16.30
2018-10-06T18:41:03.816Z,16.20
2018-10-06T18:43:32.174Z,16.20
2018-10-06T18:46:00.544Z,16.20
2018-10-06T18:48:28.869Z,16.20
2018-10-06T18:50:57.237Z,16.10
2018-10-06T18:53:25.572Z,16.00
2018-10-06T18:55:53.944Z,16.00
2018-10-06T18:58:22.285Z,15.90
2018-10-06T19:00:50.649Z,15.80
2018-10-06T19:03:19.025Z,15.70
2018-10-06T19:05:47.365Z,15.60
2018-10-06T19:08:15.761Z,15.60
2018-10-06T19:10:44.137Z,15.60
2018-10-06T19:13:12.463Z,15.60
2018-10-06T19:15:40.911Z,15.60
2018-10-06T19:18:09.199Z,15.60
2018-10-06T19:20:37.567Z,15.60
2018-10-06T19:23:05.936Z,15.50
2018-10-06T19:25:34.315Z,15.50
2018-10-06T19:28:02.686Z,15.50
2018-10-06T19:30:31.076Z,15.40
2018-10-06T19:32:59.421Z,15.30
2018-10-06T19:35:27.820Z,15.30
2018-10-06T19:37:58.268Z,15.20
2018-10-06T19:40:26.601Z,15.20
2018-10-06T19:42:54.984Z,15.10
2018-10-06T19:45:23.331Z,15.10
2018-10-06T19:47:51.700Z,14.90
2018-10-06T19:50:20.143Z,14.90
2018-10-06T19:52:48.614Z,14.90
2018-10-06T19:55:16.948Z,14.80
2018-10-06T19:57:45.321Z,14.80
2018-10-06T20:00:13.651Z,14.80
2018-10-06T20:02:42.069Z,14.80
2018-10-06T20:05:10.401Z,14.80
2018-10-06T20:07:38.786Z,14.80
2018-10-06T20:10:07.138Z,14.70
2018-10-06T20:12:35.505Z,14.70
2018-10-06T20:15:03.884Z,14.70
2018-10-06T20:17:32.259Z,14.60
2018-10-06T20:20:00.596Z,14.50
2018-10-06T20:22:28.969Z,14.50
2018-10-06T20:24:57.934Z,14.40
2018-10-06T20:27:26.299Z,14.40
2018-10-06T20:29:54.668Z,14.40
2018-10-06T20:32:23.044Z,14.30
2018-10-06T20:34:51.389Z,14.30
2018-10-06T20:37:19.846Z,14.30
2018-10-06T20:39:48.209Z,14.30
2018-10-06T20:42:16.616Z,14.30
2018-10-06T20:44:45.088Z,14.30
2018-10-06T20:47:13.679Z,14.30
2018-10-06T20:49:42.400Z,14.30
2018-10-06T20:52:10.980Z,14.30
2018-10-06T20:54:39.318Z,14.30
2018-10-06T20:57:07.780Z,14.30
2018-10-06T20:59:36.157Z,14.30
2018-10-06T21:02:04.727Z,14.30
2018-10-06T21:04:33.088Z,14.30
2018-10-06T21:07:01.464Z,14.30
2018-10-06T21:09:29.803Z,14.30
2018-10-06T21:11:58.208Z,14.30
2018-10-06T21:14:26.569Z,14.30
2018-10-06T21:16:54.900Z,14.30
2018-10-06T21:19:23.281Z,14.30
2018-10-06T21:21:51.603Z,14.30
2018-10-06T21:24:20.038Z,14.30
2018-10-06T21:26:48.362Z,14.30
2018-10-06T21:29:16.740Z,14.30
2018-10-06T21:31:45.150Z,14.30
2018-10-06T21:34:13.601Z,14.30
2018-10-06T21:36:41.940Z,14.30
2018-10-06T21:39:10.412Z,14.30
2018-10-06T21:41:38.743Z,14.30
2018-10-06T21:44:07.121Z,14.20
2018-10-06T21:46:35.456Z,14.20
2018-10-06T21:49:03.929Z,14.20
2018-10-06T21:51:32.260Z,14.20
2018-10-06T21:54:00.637Z,14.30
2018-10-06T21:56:28.977Z,14.20
2018-10-06T21:58:57.373Z,14.30
2018-10-06T22:01:25.724Z,14.30
2018-10-06T22:03:54.138Z,14.30
2018-10-06T22:06:22.464Z,14.40
2018-10-06T22:08:53.271Z,14.40
2018-10-06T22:11:21.604Z,14.40
2018-10-06T22:13:50.259Z,14.40
2018-10-06T22:16:18.691Z,14.50
2018-10-06T22:18:47.084Z,14.50
2018-10-06T22:21:15.426Z,14.50
2018-10-06T22:23:43.816Z,14.50
2018-10-06T22:26:12.337Z,14.40
2018-10-06T22:28:41.068Z,14.40
2018-10-06T22:31:09.383Z,14.40
2018-10-06T22:33:37.793Z,14.30
2018-10-06T22:36:06.156Z,14.30
2018-10-06T22:38:34.725Z,14.30
2018-10-06T22:41:03.856Z,14.30
2018-10-06T22:43:32.245Z,14.20
2018-10-06T22:46:00.701Z,14.20
2018-10-06T22:48:29.098Z,14.20
2018-10-06T22:50:57.429Z,14.20
2018-10-06T22:53:25.805Z,14.10
2018-10-06T22:55:54.129Z,14.10
2018-10-06T22:58:22.520Z,14.10
2018-10-06T23:00:50.848Z,14.00
2018-10-06T23:03:19.293Z,14.00
2018-10-06T23:05:47.572Z,14.00
2018-10-06T23:08:16.414Z,13.90
2018-10-06T23:10:44.802Z,13.90
2018-10-06T23:13:13.133Z,13.90
2018-10-06T23:15:41.543Z,13.80
2018-10-06T23:18:09.872Z,13.80
2018-10-06T23:20:38.272Z,13.80
2018-10-06T23:23:06.624Z,13.70
2018-10-06T23:25:35.018Z,13.70
2018-10-06T23:28:03.399Z,13.60
2018-10-06T23:30:31.767Z,13.60
2018-10-06T23:33:00.097Z,13.60
2018-10-06T23:35:28.532Z,13.60
2018-10-06T23:37:56.856Z,13.50
2018-10-06T23:40:25.301Z,13.50
2018-10-06T23:42:53.624Z,13.50
2018-10-06T23:45:22.138Z,13.50
2018-10-06T23:47:50.517Z,13.50
2018-10-06T23:50:18.904Z,13.40
2018-10-06T23:52:47.236Z,13.40
2018-10-06T23:55:15.696Z,13.40
2018-10-06T23:57:44.052Z,13.30
